sensor_id;sensor_type;location;lat;lon;timestamp;P1;durP1;ratioP1;P2;durP2;ratioP2
39324;SDS011;25037;49.488;9.900;2022-10-22T00:01:31;6.05;;;3.03;;
39324;SDS011;25037;49.488;9.900;2022-10-22T00:03:57;8.68;;;3.20;;
39324;SDS011;25037;49.488;9.900;2022-10-22T00:06:23;8.50;;;3.38;;
39324;SDS011;25037;49.488;9.900;2022-10-22T00:08:49;7.22;;;2.88;;
39324;SDS011;25037;49.488;9.900;2022-10-22T00:11:15;5.85;;;2.78;;
39324;SDS011;25037;49.488;9.900;2022-10-22T00:13:42;8.07;;;2.80;;
39324;SDS011;25037;49.488;9.900;2022-10-22T00:16:08;7.50;;;3.17;;
39324;SDS011;25037;49.488;9.900;2022-10-22T00:18:34;8.88;;;3.33;;
39324;SDS011;25037;49.488;9.900;2022-10-22T00:21:00;6.93;;;3.78;;
39324;SDS011;25037;49.488;9.900;2022-10-22T00:23:26;9.32;;;3.42;;
39324;SDS011;25037;49.488;9.900;2022-10-22T00:25:52;9.00;;;2.75;;
39324;SDS011;25037;49.488;9.900;2022-10-22T00:28:18;11.65;;;3.40;;
39324;SDS011;25037;49.488;9.900;2022-10-22T00:30:44;10.45;;;3.33;;
39324;SDS011;25037;49.488;9.900;2022-10-22T00:33:09;6.65;;;3.10;;
39324;SDS011;25037;49.488;9.900;2022-10-22T00:35:35;4.85;;;2.75;;
39324;SDS011;25037;49.488;9.900;2022-10-22T00:38:01;5.53;;;2.03;;
39324;SDS011;25037;49.488;9.900;2022-10-22T00:40:26;6.82;;;2.08;;
39324;SDS011;25037;49.488;9.900;2022-10-22T00:42:52;3.53;;;1.25;;
39324;SDS011;25037;49.488;9.900;2022-10-22T00:45:20;4.90;;;1.92;;
39324;SDS011;25037;49.488;9.900;2022-10-22T00:52:56;7.22;;;1.33;;
39324;SDS011;25037;49.488;9.900;2022-10-22T00:55:23;7.68;;;1.15;;
39324;SDS011;25037;49.488;9.900;2022-10-22T00:57:50;6.38;;;1.80;;
39324;SDS011;25037;49.488;9.900;2022-10-22T01:00:18;4.63;;;1.60;;
39324;SDS011;25037;49.488;9.900;2022-10-22T01:02:44;2.78;;;1.30;;
39324;SDS011;25037;49.488;9.900;2022-10-22T01:05:11;6.10;;;1.55;;
39324;SDS011;25037;49.488;9.900;2022-10-22T01:07:40;7.03;;;1.52;;
39324;SDS011;25037;49.488;9.900;2022-10-22T01:10:15;4.57;;;1.33;;
39324;SDS011;25037;49.488;9.900;2022-10-22T01:13:04;4.03;;;1.50;;
39324;SDS011;25037;49.488;9.900;2022-10-22T01:15:35;5.45;;;1.50;;
39324;SDS011;25037;49.488;9.900;2022-10-22T01:18:12;6.68;;;1.90;;
39324;SDS011;25037;49.488;9.900;2022-10-22T01:29:25;2.53;;;0.85;;
39324;SDS011;25037;49.488;9.900;2022-10-22T01:32:03;2.72;;;0.90;;
39324;SDS011;25037;49.488;9.900;2022-10-22T01:37:01;4.88;;;0.70;;
39324;SDS011;25037;49.488;9.900;2022-10-22T01:39:28;2.38;;;0.52;;
39324;SDS011;25037;49.488;9.900;2022-10-22T01:41:55;3.40;;;0.63;;
39324;SDS011;25037;49.488;9.900;2022-10-22T01:47:10;3.45;;;0.88;;
39324;SDS011;25037;49.488;9.900;2022-10-22T01:52:50;2.60;;;0.60;;
39324;SDS011;25037;49.488;9.900;2022-10-22T01:55:37;2.17;;;0.73;;
39324;SDS011;25037;49.488;9.900;2022-10-22T02:01:14;2.70;;;0.50;;
39324;SDS011;25037;49.488;9.900;2022-10-22T02:03:50;2.13;;;0.40;;
39324;SDS011;25037;49.488;9.900;2022-10-22T02:06:24;2.10;;;0.50;;
39324;SDS011;25037;49.488;9.900;2022-10-22T02:08:51;1.80;;;0.50;;
39324;SDS011;25037;49.488;9.900;2022-10-22T02:11:18;3.15;;;0.52;;
39324;SDS011;25037;49.488;9.900;2022-10-22T02:13:45;2.72;;;0.80;;
39324;SDS011;25037;49.488;9.900;2022-10-22T02:16:15;4.50;;;0.70;;
39324;SDS011;25037;49.488;9.900;2022-10-22T02:19:04;1.33;;;0.43;;
39324;SDS011;25037;49.488;9.900;2022-10-22T02:21:41;1.58;;;0.40;;
39324;SDS011;25037;49.488;9.900;2022-10-22T02:24:08;1.58;;;0.50;;
39324;SDS011;25037;49.488;9.900;2022-10-22T02:26:34;3.33;;;0.50;;
39324;SDS011;25037;49.488;9.900;2022-10-22T02:29:09;3.93;;;0.50;;
39324;SDS011;25037;49.488;9.900;2022-10-22T02:31:36;3.25;;;0.50;;
39324;SDS011;25037;49.488;9.900;2022-10-22T02:34:06;1.73;;;0.68;;
39324;SDS011;25037;49.488;9.900;2022-10-22T02:36:35;4.32;;;0.60;;
39324;SDS011;25037;49.488;9.900;2022-10-22T02:39:02;4.20;;;0.63;;
39324;SDS011;25037;49.488;9.900;2022-10-22T02:41:28;2.42;;;0.50;;
39324;SDS011;25037;49.488;9.900;2022-10-22T02:43:55;3.15;;;1.15;;
39324;SDS011;25037;49.488;9.900;2022-10-22T02:46:21;1.08;;;0.32;;
39324;SDS011;25037;49.488;9.900;2022-10-22T02:48:47;3.50;;;0.98;;
39324;SDS011;25037;49.488;9.900;2022-10-22T02:51:13;2.97;;;0.47;;
39324;SDS011;25037;49.488;9.900;2022-10-22T02:53:39;2.63;;;0.32;;
39324;SDS011;25037;49.488;9.900;2022-10-22T02:56:05;2.95;;;0.30;;
39324;SDS011;25037;49.488;9.900;2022-10-22T02:58:30;1.52;;;0.28;;
39324;SDS011;25037;49.488;9.900;2022-10-22T03:00:56;1.52;;;0.30;;
39324;SDS011;25037;49.488;9.900;2022-10-22T03:03:21;4.63;;;0.47;;
39324;SDS011;25037;49.488;9.900;2022-10-22T03:05:48;1.33;;;0.35;;
39324;SDS011;25037;49.488;9.900;2022-10-22T03:08:14;4.47;;;0.40;;
39324;SDS011;25037;49.488;9.900;2022-10-22T03:10:40;4.68;;;0.40;;
39324;SDS011;25037;49.488;9.900;2022-10-22T03:13:05;1.52;;;0.20;;
39324;SDS011;25037;49.488;9.900;2022-10-22T03:15:31;4.45;;;0.50;;
39324;SDS011;25037;49.488;9.900;2022-10-22T03:17:56;2.45;;;0.30;;
39324;SDS011;25037;49.488;9.900;2022-10-22T03:20:22;3.03;;;0.57;;
39324;SDS011;25037;49.488;9.900;2022-10-22T03:22:48;2.58;;;0.20;;
39324;SDS011;25037;49.488;9.900;2022-10-22T03:25:15;2.20;;;0.30;;
39324;SDS011;25037;49.488;9.900;2022-10-22T03:27:43;0.82;;;0.30;;
39324;SDS011;25037;49.488;9.900;2022-10-22T03:30:10;2.28;;;0.30;;
39324;SDS011;25037;49.488;9.900;2022-10-22T03:32:36;2.97;;;0.30;;
39324;SDS011;25037;49.488;9.900;2022-10-22T03:35:01;3.08;;;0.30;;
39324;SDS011;25037;49.488;9.900;2022-10-22T03:37:27;0.82;;;0.20;;
39324;SDS011;25037;49.488;9.900;2022-10-22T03:39:54;2.08;;;0.45;;
39324;SDS011;25037;49.488;9.900;2022-10-22T03:42:19;1.42;;;0.30;;
39324;SDS011;25037;49.488;9.900;2022-10-22T03:44:45;0.93;;;0.20;;
39324;SDS011;25037;49.488;9.900;2022-10-22T03:47:11;6.35;;;0.30;;
39324;SDS011;25037;49.488;9.900;2022-10-22T03:49:38;0.85;;;0.17;;
39324;SDS011;25037;49.488;9.900;2022-10-22T03:52:05;1.77;;;0.30;;
39324;SDS011;25037;49.488;9.900;2022-10-22T03:54:35;1.08;;;0.20;;
39324;SDS011;25037;49.488;9.900;2022-10-22T03:57:01;8.20;;;0.82;;
39324;SDS011;25037;49.488;9.900;2022-10-22T03:59:28;3.25;;;0.30;;
39324;SDS011;25037;49.488;9.900;2022-10-22T04:02:01;2.22;;;0.40;;
39324;SDS011;25037;49.488;9.900;2022-10-22T04:04:27;2.75;;;0.20;;
39324;SDS011;25037;49.488;9.900;2022-10-22T04:06:53;2.50;;;0.20;;
39324;SDS011;25037;49.488;9.900;2022-10-22T04:09:19;1.42;;;0.25;;
39324;SDS011;25037;49.488;9.900;2022-10-22T04:11:44;8.27;;;0.50;;
39324;SDS011;25037;49.488;9.900;2022-10-22T04:14:10;1.23;;;0.20;;
39324;SDS011;25037;49.488;9.900;2022-10-22T04:16:36;4.47;;;0.30;;
39324;SDS011;25037;49.488;9.900;2022-10-22T04:19:03;1.25;;;0.30;;
39324;SDS011;25037;49.488;9.900;2022-10-22T04:21:29;3.25;;;0.30;;
39324;SDS011;25037;49.488;9.900;2022-10-22T04:23:54;1.55;;;0.30;;
39324;SDS011;25037;49.488;9.900;2022-10-22T04:26:20;3.47;;;0.20;;
39324;SDS011;25037;49.488;9.900;2022-10-22T04:28:46;4.53;;;0.40;;
39324;SDS011;25037;49.488;9.900;2022-10-22T04:31:13;2.15;;;0.30;;
39324;SDS011;25037;49.488;9.900;2022-10-22T04:33:40;2.75;;;0.30;;
39324;SDS011;25037;49.488;9.900;2022-10-22T04:36:10;4.20;;;0.30;;
39324;SDS011;25037;49.488;9.900;2022-10-22T04:38:40;3.17;;;0.30;;
39324;SDS011;25037;49.488;9.900;2022-10-22T04:41:09;1.73;;;0.40;;
39324;SDS011;25037;49.488;9.900;2022-10-22T04:43:34;7.20;;;0.70;;
39324;SDS011;25037;49.488;9.900;2022-10-22T04:46:00;2.05;;;0.63;;
39324;SDS011;25037;49.488;9.900;2022-10-22T04:48:25;2.88;;;0.70;;
39324;SDS011;25037;49.488;9.900;2022-10-22T04:50:51;3.65;;;0.50;;
39324;SDS011;25037;49.488;9.900;2022-10-22T04:53:16;1.25;;;0.38;;
39324;SDS011;25037;49.488;9.900;2022-10-22T04:55:42;5.00;;;0.40;;
39324;SDS011;25037;49.488;9.900;2022-10-22T04:58:07;1.80;;;0.50;;
39324;SDS011;25037;49.488;9.900;2022-10-22T05:00:33;2.03;;;0.38;;
39324;SDS011;25037;49.488;9.900;2022-10-22T05:02:58;3.88;;;0.35;;
39324;SDS011;25037;49.488;9.900;2022-10-22T05:05:24;4.20;;;0.45;;
39324;SDS011;25037;49.488;9.900;2022-10-22T05:07:50;3.22;;;0.60;;
39324;SDS011;25037;49.488;9.900;2022-10-22T05:10:15;2.45;;;0.30;;
39324;SDS011;25037;49.488;9.900;2022-10-22T05:12:41;2.47;;;0.35;;
39324;SDS011;25037;49.488;9.900;2022-10-22T05:15:07;2.20;;;0.30;;
39324;SDS011;25037;49.488;9.900;2022-10-22T05:17:36;3.30;;;0.60;;
39324;SDS011;25037;49.488;9.900;2022-10-22T05:20:02;1.90;;;0.50;;
39324;SDS011;25037;49.488;9.900;2022-10-22T05:22:29;2.92;;;0.47;;
39324;SDS011;25037;49.488;9.900;2022-10-22T05:24:54;2.85;;;0.65;;
39324;SDS011;25037;49.488;9.900;2022-10-22T05:27:20;2.08;;;0.40;;
39324;SDS011;25037;49.488;9.900;2022-10-22T05:29:45;3.38;;;0.52;;
39324;SDS011;25037;49.488;9.900;2022-10-22T05:32:11;2.22;;;0.47;;
39324;SDS011;25037;49.488;9.900;2022-10-22T05:34:36;3.10;;;0.52;;
39324;SDS011;25037;49.488;9.900;2022-10-22T05:37:02;3.45;;;0.60;;
39324;SDS011;25037;49.488;9.900;2022-10-22T05:39:28;4.68;;;0.88;;
39324;SDS011;25037;49.488;9.900;2022-10-22T05:41:53;5.68;;;1.27;;
39324;SDS011;25037;49.488;9.900;2022-10-22T05:44:19;4.40;;;1.30;;
39324;SDS011;25037;49.488;9.900;2022-10-22T05:46:44;6.38;;;2.08;;
39324;SDS011;25037;49.488;9.900;2022-10-22T05:49:11;4.97;;;1.90;;
39324;SDS011;25037;49.488;9.900;2022-10-22T05:51:37;4.47;;;2.22;;
39324;SDS011;25037;49.488;9.900;2022-10-22T05:54:04;16.92;;;6.47;;
39324;SDS011;25037;49.488;9.900;2022-10-22T05:56:32;12.85;;;6.10;;
39324;SDS011;25037;49.488;9.900;2022-10-22T05:58:59;8.70;;;3.50;;
39324;SDS011;25037;49.488;9.900;2022-10-22T06:01:26;10.88;;;5.22;;
39324;SDS011;25037;49.488;9.900;2022-10-22T06:03:57;8.63;;;3.50;;
39324;SDS011;25037;49.488;9.900;2022-10-22T06:06:34;6.38;;;2.85;;
39324;SDS011;25037;49.488;9.900;2022-10-22T06:09:17;6.78;;;3.25;;
39324;SDS011;25037;49.488;9.900;2022-10-22T06:11:47;8.43;;;3.55;;
39324;SDS011;25037;49.488;9.900;2022-10-22T06:14:13;6.57;;;2.88;;
39324;SDS011;25037;49.488;9.900;2022-10-22T06:16:39;4.80;;;2.60;;
39324;SDS011;25037;49.488;9.900;2022-10-22T06:19:05;5.82;;;2.40;;
39324;SDS011;25037;49.488;9.900;2022-10-22T06:21:32;5.50;;;2.40;;
39324;SDS011;25037;49.488;9.900;2022-10-22T06:23:58;5.45;;;1.85;;
39324;SDS011;25037;49.488;9.900;2022-10-22T06:26:24;2.90;;;1.38;;
39324;SDS011;25037;49.488;9.900;2022-10-22T06:28:50;7.40;;;2.00;;
39324;SDS011;25037;49.488;9.900;2022-10-22T06:31:16;7.60;;;1.73;;
39324;SDS011;25037;49.488;9.900;2022-10-22T06:33:42;3.05;;;1.20;;
39324;SDS011;25037;49.488;9.900;2022-10-22T06:36:08;4.45;;;1.10;;
39324;SDS011;25037;49.488;9.900;2022-10-22T06:38:37;3.47;;;1.10;;
39324;SDS011;25037;49.488;9.900;2022-10-22T06:41:13;3.45;;;1.20;;
39324;SDS011;25037;49.488;9.900;2022-10-22T06:43:40;2.85;;;1.17;;
39324;SDS011;25037;49.488;9.900;2022-10-22T06:46:09;5.45;;;1.58;;
39324;SDS011;25037;49.488;9.900;2022-10-22T06:48:35;6.57;;;1.98;;
39324;SDS011;25037;49.488;9.900;2022-10-22T06:51:03;10.98;;;2.33;;
39324;SDS011;25037;49.488;9.900;2022-10-22T06:53:30;3.78;;;1.75;;
39324;SDS011;25037;49.488;9.900;2022-10-22T06:55:56;4.57;;;1.70;;
39324;SDS011;25037;49.488;9.900;2022-10-22T06:58:21;4.40;;;1.70;;
39324;SDS011;25037;49.488;9.900;2022-10-22T07:00:47;5.60;;;1.88;;
39324;SDS011;25037;49.488;9.900;2022-10-22T07:03:13;7.28;;;1.75;;
39324;SDS011;25037;49.488;9.900;2022-10-22T07:05:40;4.13;;;1.83;;
39324;SDS011;25037;49.488;9.900;2022-10-22T07:08:06;5.47;;;1.67;;
39324;SDS011;25037;49.488;9.900;2022-10-22T07:10:32;3.88;;;1.70;;
39324;SDS011;25037;49.488;9.900;2022-10-22T07:12:58;3.42;;;1.55;;
39324;SDS011;25037;49.488;9.900;2022-10-22T07:15:23;4.55;;;1.30;;
39324;SDS011;25037;49.488;9.900;2022-10-22T07:17:49;11.65;;;1.77;;
39324;SDS011;25037;49.488;9.900;2022-10-22T07:20:16;2.05;;;1.10;;
39324;SDS011;25037;49.488;9.900;2022-10-22T07:22:42;3.92;;;1.20;;
39324;SDS011;25037;49.488;9.900;2022-10-22T07:25:08;3.88;;;0.80;;
39324;SDS011;25037;49.488;9.900;2022-10-22T07:27:34;5.03;;;1.10;;
39324;SDS011;25037;49.488;9.900;2022-10-22T07:29:59;2.22;;;1.00;;
39324;SDS011;25037;49.488;9.900;2022-10-22T07:32:25;6.00;;;1.00;;
39324;SDS011;25037;49.488;9.900;2022-10-22T07:34:51;5.65;;;1.30;;
39324;SDS011;25037;49.488;9.900;2022-10-22T07:37:16;6.68;;;1.95;;
39324;SDS011;25037;49.488;9.900;2022-10-22T07:39:45;7.32;;;1.70;;
39324;SDS011;25037;49.488;9.900;2022-10-22T07:42:14;5.40;;;2.47;;
39324;SDS011;25037;49.488;9.900;2022-10-22T07:44:39;10.45;;;2.90;;
39324;SDS011;25037;49.488;9.900;2022-10-22T07:47:05;4.90;;;1.65;;
39324;SDS011;25037;49.488;9.900;2022-10-22T07:49:31;4.43;;;1.48;;
39324;SDS011;25037;49.488;9.900;2022-10-22T07:51:56;6.80;;;1.63;;
39324;SDS011;25037;49.488;9.900;2022-10-22T07:54:22;5.82;;;1.70;;
39324;SDS011;25037;49.488;9.900;2022-10-22T07:56:48;3.38;;;1.20;;
39324;SDS011;25037;49.488;9.900;2022-10-22T07:59:14;2.72;;;1.15;;
39324;SDS011;25037;49.488;9.900;2022-10-22T08:01:39;2.63;;;0.98;;
39324;SDS011;25037;49.488;9.900;2022-10-22T08:04:05;3.15;;;1.15;;
39324;SDS011;25037;49.488;9.900;2022-10-22T08:06:32;2.17;;;0.63;;
39324;SDS011;25037;49.488;9.900;2022-10-22T08:08:58;4.18;;;0.43;;
39324;SDS011;25037;49.488;9.900;2022-10-22T08:11:24;2.28;;;0.50;;
39324;SDS011;25037;49.488;9.900;2022-10-22T08:13:50;2.60;;;0.38;;
39324;SDS011;25037;49.488;9.900;2022-10-22T08:16:16;2.95;;;0.38;;
39324;SDS011;25037;49.488;9.900;2022-10-22T08:18:42;2.30;;;0.43;;
39324;SDS011;25037;49.488;9.900;2022-10-22T08:21:07;6.18;;;0.40;;
39324;SDS011;25037;49.488;9.900;2022-10-22T08:23:33;0.90;;;0.20;;
39324;SDS011;25037;49.488;9.900;2022-10-22T08:25:59;2.40;;;0.40;;
39324;SDS011;25037;49.488;9.900;2022-10-22T08:28:24;3.05;;;0.50;;
39324;SDS011;25037;49.488;9.900;2022-10-22T08:30:52;2.15;;;0.50;;
39324;SDS011;25037;49.488;9.900;2022-10-22T08:33:18;3.50;;;0.30;;
39324;SDS011;25037;49.488;9.900;2022-10-22T08:35:50;4.55;;;0.50;;
39324;SDS011;25037;49.488;9.900;2022-10-22T08:38:16;5.03;;;1.10;;
39324;SDS011;25037;49.488;9.900;2022-10-22T08:40:43;2.60;;;0.80;;
39324;SDS011;25037;49.488;9.900;2022-10-22T08:48:53;2.78;;;0.40;;
39324;SDS011;25037;49.488;9.900;2022-10-22T08:51:25;3.15;;;0.50;;
39324;SDS011;25037;49.488;9.900;2022-10-22T08:56:40;2.33;;;0.57;;
39324;SDS011;25037;49.488;9.900;2022-10-22T09:01:44;2.45;;;0.50;;
39324;SDS011;25037;49.488;9.900;2022-10-22T09:04:15;3.60;;;0.50;;
39324;SDS011;25037;49.488;9.900;2022-10-22T09:06:49;1.23;;;0.50;;
39324;SDS011;25037;49.488;9.900;2022-10-22T09:09:18;1.58;;;0.50;;
39324;SDS011;25037;49.488;9.900;2022-10-22T09:11:48;1.92;;;0.40;;
39324;SDS011;25037;49.488;9.900;2022-10-22T09:14:17;2.38;;;0.40;;
39324;SDS011;25037;49.488;9.900;2022-10-22T09:19:46;3.40;;;1.15;;
39324;SDS011;25037;49.488;9.900;2022-10-22T09:25:01;2.17;;;0.30;;
39324;SDS011;25037;49.488;9.900;2022-10-22T09:27:54;0.80;;;0.25;;
39324;SDS011;25037;49.488;9.900;2022-10-22T09:30:29;3.47;;;0.40;;
39324;SDS011;25037;49.488;9.900;2022-10-22T09:33:00;1.63;;;0.40;;
39324;SDS011;25037;49.488;9.900;2022-10-22T09:38:15;1.48;;;0.30;;
39324;SDS011;25037;49.488;9.900;2022-10-22T09:40:45;2.72;;;0.77;;
39324;SDS011;25037;49.488;9.900;2022-10-22T09:43:15;2.30;;;0.30;;
39324;SDS011;25037;49.488;9.900;2022-10-22T09:45:41;2.08;;;0.50;;
39324;SDS011;25037;49.488;9.900;2022-10-22T09:48:09;1.73;;;0.30;;
39324;SDS011;25037;49.488;9.900;2022-10-22T09:50:42;4.45;;;0.80;;
39324;SDS011;25037;49.488;9.900;2022-10-22T09:53:20;3.80;;;0.32;;
39324;SDS011;25037;49.488;9.900;2022-10-22T09:55:53;1.67;;;0.20;;
39324;SDS011;25037;49.488;9.900;2022-10-22T09:58:20;0.55;;;0.10;;
39324;SDS011;25037;49.488;9.900;2022-10-22T10:00:54;2.88;;;0.30;;
39324;SDS011;25037;49.488;9.900;2022-10-22T10:03:25;1.20;;;0.30;;
39324;SDS011;25037;49.488;9.900;2022-10-22T10:05:54;1.85;;;0.35;;
39324;SDS011;25037;49.488;9.900;2022-10-22T10:08:22;1.33;;;0.20;;
39324;SDS011;25037;49.488;9.900;2022-10-22T10:10:50;2.28;;;0.20;;
39324;SDS011;25037;49.488;9.900;2022-10-22T10:16:14;1.30;;;0.20;;
39324;SDS011;25037;49.488;9.900;2022-10-22T10:24:28;1.50;;;0.30;;
39324;SDS011;25037;49.488;9.900;2022-10-22T10:27:33;0.90;;;0.28;;
39324;SDS011;25037;49.488;9.900;2022-10-22T10:30:10;2.40;;;0.20;;
39324;SDS011;25037;49.488;9.900;2022-10-22T10:40:46;1.90;;;0.20;;
39324;SDS011;25037;49.488;9.900;2022-10-22T10:51:35;2.20;;;0.30;;
39324;SDS011;25037;49.488;9.900;2022-10-22T10:54:24;1.02;;;0.17;;
39324;SDS011;25037;49.488;9.900;2022-10-22T10:57:01;1.80;;;0.25;;
39324;SDS011;25037;49.488;9.900;2022-10-22T11:07:58;1.95;;;0.40;;
39324;SDS011;25037;49.488;9.900;2022-10-22T11:10:38;1.20;;;0.20;;
39324;SDS011;25037;49.488;9.900;2022-10-22T11:18:41;2.80;;;0.30;;
39324;SDS011;25037;49.488;9.900;2022-10-22T11:21:21;0.98;;;0.20;;
39324;SDS011;25037;49.488;9.900;2022-10-22T11:26:47;1.05;;;0.30;;
39324;SDS011;25037;49.488;9.900;2022-10-22T11:29:21;0.95;;;0.20;;
39324;SDS011;25037;49.488;9.900;2022-10-22T11:31:49;0.68;;;0.20;;
39324;SDS011;25037;49.488;9.900;2022-10-22T11:34:20;2.15;;;0.30;;
39324;SDS011;25037;49.488;9.900;2022-10-22T11:36:52;1.45;;;0.20;;
39324;SDS011;25037;49.488;9.900;2022-10-22T11:39:27;2.05;;;0.30;;
39324;SDS011;25037;49.488;9.900;2022-10-22T11:42:29;3.35;;;1.02;;
39324;SDS011;25037;49.488;9.900;2022-10-22T11:45:02;2.58;;;0.28;;
39324;SDS011;25037;49.488;9.900;2022-10-22T11:47:33;0.77;;;0.20;;
39324;SDS011;25037;49.488;9.900;2022-10-22T12:16:38;2.95;;;0.40;;
39324;SDS011;25037;49.488;9.900;2022-10-22T12:24:17;1.30;;;0.45;;
39324;SDS011;25037;49.488;9.900;2022-10-22T12:26:45;4.43;;;0.60;;
39324;SDS011;25037;49.488;9.900;2022-10-22T12:29:13;3.33;;;0.52;;
39324;SDS011;25037;49.488;9.900;2022-10-22T12:31:41;2.33;;;0.40;;
39324;SDS011;25037;49.488;9.900;2022-10-22T12:34:16;2.65;;;0.52;;
39324;SDS011;25037;49.488;9.900;2022-10-22T12:36:45;2.80;;;0.40;;
39324;SDS011;25037;49.488;9.900;2022-10-22T12:39:13;4.75;;;0.70;;
39324;SDS011;25037;49.488;9.900;2022-10-22T12:41:41;4.18;;;0.65;;
39324;SDS011;25037;49.488;9.900;2022-10-22T12:44:12;4.40;;;0.80;;
39324;SDS011;25037;49.488;9.900;2022-10-22T12:46:40;3.77;;;0.80;;
39324;SDS011;25037;49.488;9.900;2022-10-22T12:49:10;2.95;;;0.50;;
39324;SDS011;25037;49.488;9.900;2022-10-22T12:51:40;4.22;;;0.65;;
39324;SDS011;25037;49.488;9.900;2022-10-22T12:54:08;4.43;;;0.60;;
39324;SDS011;25037;49.488;9.900;2022-10-22T12:56:42;3.90;;;0.45;;
39324;SDS011;25037;49.488;9.900;2022-10-22T12:59:19;5.38;;;0.60;;
39324;SDS011;25037;49.488;9.900;2022-10-22T13:01:47;4.07;;;0.80;;
39324;SDS011;25037;49.488;9.900;2022-10-22T13:04:19;3.88;;;0.73;;
39324;SDS011;25037;49.488;9.900;2022-10-22T13:12:05;3.10;;;0.50;;
39324;SDS011;25037;49.488;9.900;2022-10-22T13:14:35;3.33;;;0.20;;
39324;SDS011;25037;49.488;9.900;2022-10-22T13:20:01;2.88;;;0.95;;
39324;SDS011;25037;49.488;9.900;2022-10-22T13:22:39;2.38;;;0.52;;
39324;SDS011;25037;49.488;9.900;2022-10-22T13:25:18;3.50;;;0.40;;
39324;SDS011;25037;49.488;9.900;2022-10-22T13:30:23;4.28;;;0.50;;
39324;SDS011;25037;49.488;9.900;2022-10-22T13:32:58;5.82;;;0.40;;
39324;SDS011;25037;49.488;9.900;2022-10-22T13:35:29;2.42;;;0.40;;
39324;SDS011;25037;49.488;9.900;2022-10-22T13:37:57;1.73;;;0.38;;
39324;SDS011;25037;49.488;9.900;2022-10-22T13:40:23;2.55;;;0.40;;
39324;SDS011;25037;49.488;9.900;2022-10-22T13:42:49;5.88;;;0.57;;
39324;SDS011;25037;49.488;9.900;2022-10-22T13:45:15;2.72;;;0.40;;
39324;SDS011;25037;49.488;9.900;2022-10-22T13:47:41;3.67;;;0.40;;
39324;SDS011;25037;49.488;9.900;2022-10-22T13:50:13;2.75;;;0.40;;
39324;SDS011;25037;49.488;9.900;2022-10-22T13:52:52;3.03;;;0.50;;
39324;SDS011;25037;49.488;9.900;2022-10-22T13:55:19;4.18;;;0.40;;
39324;SDS011;25037;49.488;9.900;2022-10-22T13:57:51;2.67;;;0.40;;
39324;SDS011;25037;49.488;9.900;2022-10-22T14:00:20;1.85;;;0.40;;
39324;SDS011;25037;49.488;9.900;2022-10-22T14:02:51;4.05;;;0.52;;
39324;SDS011;25037;49.488;9.900;2022-10-22T14:05:19;2.28;;;0.45;;
39324;SDS011;25037;49.488;9.900;2022-10-22T14:07:45;4.93;;;0.60;;
39324;SDS011;25037;49.488;9.900;2022-10-22T14:10:18;2.78;;;0.40;;
39324;SDS011;25037;49.488;9.900;2022-10-22T14:12:48;2.20;;;0.60;;
39324;SDS011;25037;49.488;9.900;2022-10-22T14:15:15;4.97;;;0.40;;
39324;SDS011;25037;49.488;9.900;2022-10-22T14:17:43;2.95;;;0.70;;
39324;SDS011;25037;49.488;9.900;2022-10-22T14:20:21;3.92;;;0.50;;
39324;SDS011;25037;49.488;9.900;2022-10-22T14:22:49;3.10;;;0.50;;
39324;SDS011;25037;49.488;9.900;2022-10-22T14:25:19;1.73;;;0.40;;
39324;SDS011;25037;49.488;9.900;2022-10-22T14:27:49;4.35;;;0.52;;
39324;SDS011;25037;49.488;9.900;2022-10-22T14:30:17;3.08;;;0.32;;
39324;SDS011;25037;49.488;9.900;2022-10-22T14:32:44;6.88;;;0.70;;
39324;SDS011;25037;49.488;9.900;2022-10-22T14:35:14;4.53;;;0.70;;
39324;SDS011;25037;49.488;9.900;2022-10-22T14:37:42;3.55;;;0.60;;
39324;SDS011;25037;49.488;9.900;2022-10-22T14:40:08;3.22;;;0.40;;
39324;SDS011;25037;49.488;9.900;2022-10-22T14:42:38;2.58;;;0.40;;
39324;SDS011;25037;49.488;9.900;2022-10-22T14:45:27;3.67;;;0.80;;
39324;SDS011;25037;49.488;9.900;2022-10-22T14:47:52;2.28;;;0.50;;
39324;SDS011;25037;49.488;9.900;2022-10-22T14:50:19;4.97;;;0.60;;
39324;SDS011;25037;49.488;9.900;2022-10-22T14:52:46;4.60;;;1.15;;
39324;SDS011;25037;49.488;9.900;2022-10-22T14:55:13;4.78;;;0.52;;
39324;SDS011;25037;49.488;9.900;2022-10-22T14:57:40;3.72;;;0.50;;
39324;SDS011;25037;49.488;9.900;2022-10-22T15:00:07;3.13;;;0.52;;
39324;SDS011;25037;49.488;9.900;2022-10-22T15:02:35;4.25;;;0.50;;
39324;SDS011;25037;49.488;9.900;2022-10-22T15:05:00;4.35;;;0.50;;
39324;SDS011;25037;49.488;9.900;2022-10-22T15:07:26;2.80;;;0.63;;
39324;SDS011;25037;49.488;9.900;2022-10-22T15:09:52;1.33;;;0.30;;
39324;SDS011;25037;49.488;9.900;2022-10-22T15:12:18;3.13;;;0.52;;
39324;SDS011;25037;49.488;9.900;2022-10-22T15:14:44;2.65;;;0.73;;
39324;SDS011;25037;49.488;9.900;2022-10-22T15:17:14;4.88;;;0.68;;
39324;SDS011;25037;49.488;9.900;2022-10-22T15:19:41;3.85;;;0.60;;
39324;SDS011;25037;49.488;9.900;2022-10-22T15:22:07;3.03;;;0.55;;
39324;SDS011;25037;49.488;9.900;2022-10-22T15:24:33;2.38;;;0.40;;
39324;SDS011;25037;49.488;9.900;2022-10-22T15:26:59;3.33;;;0.50;;
39324;SDS011;25037;49.488;9.900;2022-10-22T15:29:25;7.32;;;0.80;;
39324;SDS011;25037;49.488;9.900;2022-10-22T15:31:52;3.13;;;0.63;;
39324;SDS011;25037;49.488;9.900;2022-10-22T15:34:21;5.38;;;0.60;;
39324;SDS011;25037;49.488;9.900;2022-10-22T15:36:54;2.67;;;0.43;;
39324;SDS011;25037;49.488;9.900;2022-10-22T15:39:21;5.53;;;0.70;;
39324;SDS011;25037;49.488;9.900;2022-10-22T15:41:47;5.25;;;0.60;;
39324;SDS011;25037;49.488;9.900;2022-10-22T15:44:14;4.45;;;0.60;;
39324;SDS011;25037;49.488;9.900;2022-10-22T15:46:45;2.20;;;0.52;;
39324;SDS011;25037;49.488;9.900;2022-10-22T15:49:10;3.40;;;0.60;;
39324;SDS011;25037;49.488;9.900;2022-10-22T15:51:36;5.13;;;0.50;;
39324;SDS011;25037;49.488;9.900;2022-10-22T15:54:02;4.43;;;0.73;;
39324;SDS011;25037;49.488;9.900;2022-10-22T15:56:28;4.85;;;0.57;;
39324;SDS011;25037;49.488;9.900;2022-10-22T15:58:58;2.67;;;0.60;;
39324;SDS011;25037;49.488;9.900;2022-10-22T16:01:26;2.70;;;0.50;;
39324;SDS011;25037;49.488;9.900;2022-10-22T16:03:52;3.55;;;0.60;;
39324;SDS011;25037;49.488;9.900;2022-10-22T16:09:04;3.35;;;0.47;;
39324;SDS011;25037;49.488;9.900;2022-10-22T16:11:32;3.30;;;0.45;;
39324;SDS011;25037;49.488;9.900;2022-10-22T16:13:58;3.40;;;0.50;;
39324;SDS011;25037;49.488;9.900;2022-10-22T16:16:25;4.15;;;0.70;;
39324;SDS011;25037;49.488;9.900;2022-10-22T16:18:53;6.03;;;1.05;;
39324;SDS011;25037;49.488;9.900;2022-10-22T16:21:19;4.90;;;0.98;;
39324;SDS011;25037;49.488;9.900;2022-10-22T16:23:46;4.25;;;1.40;;
39324;SDS011;25037;49.488;9.900;2022-10-22T16:26:12;5.30;;;0.98;;
39324;SDS011;25037;49.488;9.900;2022-10-22T16:28:39;8.02;;;1.20;;
39324;SDS011;25037;49.488;9.900;2022-10-22T16:31:06;3.97;;;0.75;;
39324;SDS011;25037;49.488;9.900;2022-10-22T16:33:33;4.88;;;1.20;;
39324;SDS011;25037;49.488;9.900;2022-10-22T16:36:00;8.23;;;1.90;;
39324;SDS011;25037;49.488;9.900;2022-10-22T16:38:27;7.55;;;1.40;;
39324;SDS011;25037;49.488;9.900;2022-10-22T16:40:52;4.28;;;1.65;;
39324;SDS011;25037;49.488;9.900;2022-10-22T16:43:18;6.78;;;2.17;;
39324;SDS011;25037;49.488;9.900;2022-10-22T16:45:48;6.25;;;1.50;;
39324;SDS011;25037;49.488;9.900;2022-10-22T16:48:14;4.90;;;1.30;;
39324;SDS011;25037;49.488;9.900;2022-10-22T16:50:41;4.70;;;1.35;;
39324;SDS011;25037;49.488;9.900;2022-10-22T16:53:07;6.03;;;1.20;;
39324;SDS011;25037;49.488;9.900;2022-10-22T16:55:36;4.38;;;0.90;;
39324;SDS011;25037;49.488;9.900;2022-10-22T16:58:02;6.45;;;1.00;;
39324;SDS011;25037;49.488;9.900;2022-10-22T17:00:28;3.83;;;1.08;;
39324;SDS011;25037;49.488;9.900;2022-10-22T17:02:54;5.65;;;0.95;;
39324;SDS011;25037;49.488;9.900;2022-10-22T17:05:20;3.58;;;0.90;;
39324;SDS011;25037;49.488;9.900;2022-10-22T17:07:46;4.00;;;1.08;;